| time (UTC) | temp C | wind direction | speed KPH | gust KPH | rain 1hr cm | rain 24hr cm | rain mn cm | humidity % | barometer mb |
| 20260507015506 | 11 | 319 | 3.2 | 11.3 | 0.03 | 0.53 | 0.53 | 90 | 1007.7 |
| 20260507015008 | 11 | 252 | 3.2 | 17.7 | 0.05 | 0.53 | 0.53 | 91 | 1007.5 |
| 20260507014515 | 11 | 275 | 8.0 | 25.7 | 0.05 | 0.53 | 0.53 | 91 | 1007.5 |
| 20260507014006 | 11 | 267 | 9.7 | 25.7 | 0.05 | 0.53 | 0.53 | 92 | 1007.3 |
| 20260507013508 | 11 | 328 | 1.6 | 9.7 | 0.03 | 0.51 | 0.51 | 92 | 1007.3 |
| 20260507013019 | 12 | 301 | 1.6 | 14.5 | 0.03 | 0.51 | 0.51 | 93 | 1007.5 |
| 20260507012511 | 12 | 268 | 3.2 | 14.5 | 0.03 | 0.51 | 0.51 | 93 | 1007.4 |
| 20260507012008 | 12 | 282 | 3.2 | 12.9 | 0.03 | 0.51 | 0.51 | 93 | 1007.6 |
| 20260507011521 | 12 | 269 | 3.2 | 12.9 | 0.03 | 0.51 | 0.51 | 94 | 1007.2 |
| 20260507011012 | 12 | 11 | 3.2 | 16.1 | 0.03 | 0.51 | 0.51 | 95 | 1007.0 |
| 20260507010509 | 12 | 301 | 6.4 | 19.3 | 0.03 | 0.51 | 0.51 | 95 | 1007.0 |
| 20260507010029 | 13 | 284 | 9.7 | 19.3 | 0.05 | 0.51 | 0.51 | 95 | 1006.9 |
| 20260507005509 | 14 | 298 | 4.8 | 14.5 | 0.05 | 0.51 | 0.51 | 97 | 1006.8 |
| 20260507005006 | 14 | 302 | 4.8 | 6.4 | 0.03 | 0.48 | 0.48 | 97 | 1006.6 |
| 20260507004511 | 14 | 236 | 0.0 | 6.4 | 0.03 | 0.48 | 0.48 | 97 | 1006.3 |
| 20260507004005 | 14 | 65 | 1.6 | 4.8 | 0.03 | 0.48 | 0.48 | 96 | 1006.2 |
| 20260507003507 | 14 | 167 | 1.6 | 4.8 | 0.03 | 0.48 | 0.48 | 96 | 1006.2 |
| 20260507003025 | 14 | 157 | 1.6 | 4.8 | 0.03 | 0.48 | 0.48 | 96 | 1006.1 |
| 20260507002506 | 14 | 213 | 0.0 | 6.4 | 0.03 | 0.48 | 0.48 | 96 | 1006.1 |
| 20260507002011 | 14 | 159 | 1.6 | 6.4 | 0.03 | 0.48 | 0.48 | 96 | 1006.0 |
| 20260507001534 | 14 | 185 | 0.0 | 3.2 | 0.03 | 0.48 | 0.48 | 96 | 1006.0 |
| 20260507001007 | 14 | 190 | 0.0 | 3.2 | 0.03 | 0.48 | 0.48 | 96 | 1006.1 |
| 20260507000508 | 14 | 140 | 0.0 | 6.4 | 0.03 | 0.48 | 0.48 | 96 | 1006.2 |
| 20260507000022 | 14 | 133 | 1.6 | 6.4 | 0.00 | 0.46 | 0.46 | 96 | 1006.2 |
| 20260506235511 | 14 | 167 | 0.0 | 4.8 | 0.00 | 0.46 | 0.46 | 96 | 1006.1 |
| 20260506235009 | 14 | 95 | 1.6 | 3.2 | 0.00 | 0.46 | 0.46 | 96 | 1006.1 |
| 20260506234523 | 14 | 169 | 1.6 | 4.8 | 0.00 | 0.46 | 0.46 | 96 | 1006.0 |
| 20260506234008 | 14 | 170 | 1.6 | 4.8 | 0.00 | 0.46 | 0.46 | 96 | 1005.9 |
| 20260506233506 | 14 | 159 | 0.0 | 3.2 | 0.00 | 0.46 | 0.46 | 96 | 1005.9 |
| 20260506233014 | 14 | 46 | 0.0 | 3.2 | 0.00 | 0.46 | 0.46 | 96 | 1005.8 |
| 20260506232507 | 14 | 122 | 1.6 | 3.2 | 0.00 | 0.46 | 0.46 | 96 | 1005.9 |
| 20260506232008 | 14 | 148 | 1.6 | 3.2 | 0.00 | 0.46 | 0.46 | 96 | 1005.8 |
| 20260506231518 | 14 | 169 | 0.0 | 3.2 | 0.00 | 0.46 | 0.46 | 96 | 1005.8 |
| 20260506231007 | 14 | 139 | 0.0 | 3.2 | 0.00 | 0.46 | 0.46 | 96 | 1005.7 |
| 20260506230509 | 14 | 263 | 0.0 | 3.2 | 0.00 | 0.46 | 0.46 | 96 | 1005.7 |
| 20260506230023 | 14 | 297 | 0.0 | 11.3 | 0.00 | 0.46 | 0.46 | 96 | 1005.6 |
| 20260506225507 | 14 | 153 | 1.6 | 11.3 | 0.00 | 0.46 | 0.46 | 96 | 1005.6 |
| 20260506225007 | 14 | 146 | 1.6 | 9.7 | 0.00 | 0.46 | 0.46 | 96 | 1005.6 |
| 20260506224526 | 14 | 150 | 3.2 | 8.0 | 0.03 | 0.46 | 0.46 | 96 | 1005.5 |
| 20260506224009 | 14 | 124 | 1.6 | 4.8 | 0.03 | 0.46 | 0.46 | 96 | 1005.6 |
| 20260506223511 | 14 | 122 | 0.0 | 6.4 | 0.03 | 0.46 | 0.46 | 96 | 1005.6 |
| 20260506223027 | 14 | 107 | 1.6 | 9.7 | 0.05 | 0.46 | 0.46 | 96 | 1005.6 |
| 20260506222504 | 14 | 105 | 3.2 | 9.7 | 0.05 | 0.46 | 0.46 | 96 | 1005.5 |
| 20260506222008 | 14 | 141 | 3.2 | 8.0 | 0.05 | 0.46 | 0.46 | 96 | 1005.5 |
| 20260506221513 | 14 | 293 | 1.6 | 8.0 | 0.05 | 0.46 | 0.46 | 96 | 1005.5 |
| 20260506221010 | 14 | 173 | 1.6 | 11.3 | 0.05 | 0.46 | 0.46 | 96 | 1005.5 |
| 20260506220507 | 14 | 134 | 1.6 | 11.3 | 0.05 | 0.46 | 0.46 | 96 | 1005.6 |
| 20260506220020 | 14 | 116 | 1.6 | 6.4 | 0.05 | 0.46 | 0.46 | 95 | 1005.6 |
| 20260506215509 | 14 | 157 | 1.6 | 6.4 | 0.05 | 0.46 | 0.46 | 95 | 1005.6 |
| 20260506215009 | 14 | 46 | 0.0 | 6.4 | 0.05 | 0.46 | 0.46 | 96 | 1005.7 |
| 20260506214524 | 14 | 161 | 1.6 | 6.4 | 0.03 | 0.43 | 0.43 | 95 | 1005.7 |
| 20260506214015 | 14 | 30 | 0.0 | 4.8 | 0.03 | 0.43 | 0.43 | 95 | 1005.6 |
| 20260506213512 | 14 | 157 | 1.6 | 8.0 | 0.03 | 0.43 | 0.43 | 95 | 1005.6 |
| 20260506213024 | 14 | 148 | 1.6 | 9.7 | 0.00 | 0.41 | 0.41 | 95 | 1005.6 |
| 20260506212510 | 14 | 95 | 3.2 | 9.7 | 0.03 | 0.41 | 0.41 | 95 | 1005.7 |
| 20260506212013 | 14 | 63 | 0.0 | 6.4 | 0.03 | 0.41 | 0.41 | 95 | 1005.7 |
| 20260506211531 | 14 | 26 | 1.6 | 6.4 | 0.03 | 0.41 | 0.41 | 95 | 1005.6 |
| 20260506211006 | 14 | 62 | 0.0 | 6.4 | 0.03 | 0.41 | 0.41 | 95 | 1005.8 |
| 20260506210506 | 14 | 204 | 1.6 | 6.4 | 0.03 | 0.41 | 0.41 | 95 | 1005.7 |
| 20260506210021 | 14 | 67 | 0.0 | 6.4 | 0.05 | 0.41 | 0.41 | 95 | 1005.7 |
| 20260506205509 | 14 | 51 | 0.0 | 6.4 | 0.08 | 0.41 | 0.41 | 95 | 1005.7 |
| 20260506205014 | 14 | 150 | 1.6 | 6.4 | 0.10 | 0.41 | 0.41 | 95 | 1005.7 |
| 20260506204521 | 14 | 81 | 3.2 | 6.4 | 0.13 | 0.41 | 0.41 | 95 | 1005.9 |
| 20260506204008 | 14 | 78 | 1.6 | 8.0 | 0.13 | 0.41 | 0.41 | 95 | 1005.9 |
| 20260506203504 | 14 | 101 | 1.6 | 8.0 | 0.15 | 0.41 | 0.41 | 95 | 1005.8 |
| 20260506203006 | 14 | 97 | 1.6 | 8.0 | 0.15 | 0.41 | 0.41 | 95 | 1005.8 |
| 20260506202505 | 14 | 116 | 1.6 | 6.4 | 0.15 | 0.38 | 0.38 | 95 | 1005.8 |
| 20260506202009 | 15 | 148 | 0.0 | 6.4 | 0.18 | 0.38 | 0.38 | 95 | 1005.9 |
| 20260506201510 | 14 | 124 | 1.6 | 12.9 | 0.18 | 0.38 | 0.38 | 95 | 1005.9 |
| 20260506201005 | 14 | 197 | 1.6 | 12.9 | 0.18 | 0.38 | 0.38 | 95 | 1005.9 |
| 20260506200510 | 14 | 14 | 3.2 | 11.3 | 0.20 | 0.38 | 0.38 | 95 | 1005.9 |
| 20260506200013 | 14 | 87 | 3.2 | 8.0 | 0.18 | 0.36 | 0.36 | 95 | 1006.0 |
| 20260506195508 | 14 | 180 | 1.6 | 8.0 | 0.15 | 0.33 | 0.33 | 94 | 1006.1 |
| 20260506195007 | 14 | 157 | 1.6 | 8.0 | 0.13 | 0.30 | 0.30 | 94 | 1006.1 |
| 20260506194514 | 14 | 140 | 3.2 | 8.0 | 0.10 | 0.28 | 0.28 | 94 | 1006.2 |
| 20260506194005 | 14 | 127 | 1.6 | 9.7 | 0.10 | 0.28 | 0.28 | 94 | 1006.3 |
| 20260506193502 | 14 | 71 | 1.6 | 12.9 | 0.08 | 0.25 | 0.25 | 94 | 1006.3 |
| 20260506193007 | 14 | 157 | 3.2 | 12.9 | 0.08 | 0.25 | 0.25 | 94 | 1006.3 |
| 20260506192503 | 14 | 164 | 3.2 | 12.9 | 0.05 | 0.23 | 0.23 | 93 | 1006.4 |
| 20260506192006 | 14 | 163 | 3.2 | 12.9 | 0.03 | 0.20 | 0.20 | 93 | 1006.4 |
| 20260506191510 | 14 | 90 | 4.8 | 11.3 | 0.05 | 0.20 | 0.20 | 93 | 1006.6 |
| 20260506191006 | 14 | 70 | 1.6 | 11.3 | 0.05 | 0.20 | 0.20 | 93 | 1006.6 |
| 20260506190506 | 14 | 97 | 3.2 | 11.3 | 0.03 | 0.18 | 0.18 | 93 | 1006.6 |
| 20260506190014 | 14 | 145 | 1.6 | 12.9 | 0.03 | 0.18 | 0.18 | 93 | 1006.7 |
| 20260506185506 | 14 | 98 | 3.2 | 12.9 | 0.03 | 0.18 | 0.18 | 93 | 1006.8 |
| 20260506185005 | 14 | 169 | 4.8 | 9.7 | 0.03 | 0.18 | 0.18 | 93 | 1006.8 |
| 20260506184515 | 14 | 162 | 1.6 | 6.4 | 0.05 | 0.18 | 0.18 | 93 | 1006.8 |
| 20260506184007 | 14 | 105 | 1.6 | 6.4 | 0.05 | 0.18 | 0.18 | 93 | 1006.8 |
| 20260506183509 | 14 | 259 | 3.2 | 11.3 | 0.05 | 0.18 | 0.18 | 93 | 1007.1 |
| 20260506183018 | 14 | 150 | 1.6 | 11.3 | 0.08 | 0.18 | 0.18 | 93 | 1006.9 |
| 20260506182503 | 14 | 233 | 3.2 | 8.0 | 0.08 | 0.18 | 0.18 | 93 | 1006.9 |
| 20260506182003 | 14 | 70 | 3.2 | 9.7 | 0.10 | 0.18 | 0.18 | 93 | 1006.9 |
| 20260506181508 | 15 | 136 | 1.6 | 9.7 | 0.10 | 0.15 | 0.15 | 93 | 1006.9 |
| 20260506181008 | 15 | 162 | 3.2 | 8.0 | 0.13 | 0.15 | 0.15 | 92 | 1006.9 |
| 20260506180506 | 15 | 192 | 1.6 | 8.0 | 0.13 | 0.15 | 0.15 | 92 | 1007.0 |
| 20260506180015 | 15 | 189 | 3.2 | 9.7 | 0.13 | 0.15 | 0.15 | 92 | 1007.0 |
| 20260506175507 | 15 | 188 | 3.2 | 9.7 | 0.15 | 0.15 | 0.15 | 92 | 1006.7 |
| 20260506175006 | 15 | 86 | 1.6 | 11.3 | 0.15 | 0.15 | 0.15 | 92 | 1006.7 |
| 20260506174514 | 15 | 188 | 3.2 | 11.3 | 0.13 | 0.13 | 0.13 | 91 | 1007.1 |
| 20260506174005 | 15 | 155 | 3.2 | 11.3 | 0.13 | 0.13 | 0.13 | 91 | 1007.0 |
| 20260506173506 | 15 | 184 | 4.8 | 11.3 | 0.13 | 0.13 | 0.13 | 91 | 1007.1 |
| 20260506173020 | 15 | 183 | 1.6 | 8.0 | 0.10 | 0.10 | 0.10 | 91 | 1007.3 |
| 20260506172509 | 15 | 64 | 3.2 | 8.0 | 0.10 | 0.10 | 0.10 | 90 | 1007.3 |
| 20260506172009 | 16 | 68 | 1.6 | 8.0 | 0.08 | 0.08 | 0.08 | 89 | 1007.6 |
| 20260506171511 | 16 | 148 | 1.6 | 8.0 | 0.05 | 0.05 | 0.05 | 88 | 1007.7 |
| 20260506171003 | 16 | 138 | 3.2 | 6.4 | 0.03 | 0.03 | 0.03 | 87 | 1007.9 |
| 20260506170505 | 16 | 86 | 1.6 | 6.4 | 0.03 | 0.03 | 0.03 | 86 | 1008.2 |
| 20260506170011 | 17 | 81 | 1.6 | 6.4 | 0.03 | 0.03 | 0.03 | 85 | 1007.9 |
| 20260506165506 | 17 | 122 | 1.6 | 9.7 | 0.00 | 0.00 | 0.00 | 81 | 1008.0 |
| 20260506165006 | 17 | 277 | 3.2 | 9.7 | 0.00 | 0.00 | 0.00 | 81 | 1008.2 |
| 20260506164519 | 17 | 153 | 3.2 | 9.7 | 0.00 | 0.00 | 0.00 | 79 | 1008.1 |
| 20260506164009 | 17 | 315 | 0.0 | 9.7 | 0.00 | 0.00 | 0.00 | 79 | 1007.9 |
| 20260506163514 | 18 | 142 | 1.6 | 11.3 | 0.00 | 0.00 | 0.00 | 77 | 1007.8 |
| 20260506163018 | 18 | 271 | 3.2 | 11.3 | 0.00 | 0.00 | 0.00 | 74 | 1007.9 |
| 20260506162509 | 18 | 321 | 4.8 | 8.0 | 0.00 | 0.00 | 0.00 | 75 | 1007.8 |
| 20260506162014 | 18 | 67 | 1.6 | 11.3 | 0.00 | 0.00 | 0.00 | 73 | 1007.8 |
| 20260506161522 | 18 | 250 | 3.2 | 16.1 | 0.00 | 0.00 | 0.00 | 73 | 1007.8 |
| 20260506161010 | 19 | 265 | 3.2 | 16.1 | 0.00 | 0.00 | 0.00 | 71 | 1007.8 |
| 20260506160511 | 19 | 342 | 3.2 | 14.5 | 0.00 | 0.00 | 0.00 | 70 | 1007.8 |
| 20260506160007 | 19 | 119 | 4.8 | 17.7 | 0.00 | 0.00 | 0.00 | 70 | 1007.9 |
| 20260506155505 | 19 | 303 | 1.6 | 17.7 | 0.00 | 0.00 | 0.00 | 71 | 1008.2 |
| 20260506155007 | 19 | 67 | 4.8 | 17.7 | 0.00 | 0.00 | 0.00 | 71 | 1008.3 |
| 20260506154512 | 19 | 316 | 3.2 | 11.3 | 0.00 | 0.00 | 0.00 | 70 | 1008.5 |
| 20260506154006 | 19 | 351 | 3.2 | 11.3 | 0.00 | 0.00 | 0.00 | 72 | 1008.3 |
| 20260506153508 | 19 | 82 | 1.6 | 9.7 | 0.00 | 0.00 | 0.00 | 72 | 1008.4 |
| 20260506153015 | 19 | 155 | 3.2 | 9.7 | 0.00 | 0.00 | 0.00 | 73 | 1008.4 |
| 20260506152506 | 18 | 309 | 1.6 | 6.4 | 0.00 | 0.00 | 0.00 | 75 | 1008.4 |
| 20260506152010 | 18 | 280 | 3.2 | 6.4 | 0.00 | 0.00 | 0.00 | 75 | 1008.5 |
| 20260506151529 | 18 | 276 | 0.0 | 6.4 | 0.00 | 0.00 | 0.00 | 76 | 1008.6 |
| 20260506151014 | 18 | 229 | 1.6 | 6.4 | 0.00 | 0.00 | 0.00 | 76 | 1008.7 |
| 20260506150507 | 18 | 71 | 3.2 | 4.8 | 0.00 | 0.00 | 0.00 | 75 | 1008.7 |
| 20260506150022 | 18 | 92 | 1.6 | 4.8 | 0.00 | 0.00 | 0.00 | 76 | 1008.7 |
| 20260506145517 | 18 | 138 | 1.6 | 8.0 | 0.00 | 0.00 | 0.00 | 77 | 1008.7 |
| 20260506145004 | 17 | 126 | 3.2 | 8.0 | 0.00 | 0.00 | 0.00 | 77 | 1008.7 |
| 20260506144512 | 17 | 244 | 1.6 | 4.8 | 0.00 | 0.00 | 0.00 | 78 | 1008.7 |
| 20260506144008 | 17 | 271 | 1.6 | 11.3 | 0.00 | 0.00 | 0.00 | 80 | 1008.9 |
| 20260506143506 | 17 | 103 | 1.6 | 11.3 | 0.00 | 0.00 | 0.00 | 79 | 1008.9 |
| 20260506143018 | 17 | 236 | 3.2 | 9.7 | 0.00 | 0.00 | 0.00 | 79 | 1008.9 |
| 20260506142510 | 17 | 173 | 1.6 | 6.4 | 0.00 | 0.00 | 0.00 | 80 | 1008.9 |
| 20260506142009 | 17 | 295 | 1.6 | 8.0 | 0.00 | 0.00 | 0.00 | 81 | 1009.0 |
| 20260506141518 | 17 | 30 | 3.2 | 9.7 | 0.00 | 0.00 | 0.00 | 80 | 1008.9 |
| 20260506141008 | 16 | 185 | 4.8 | 9.7 | 0.00 | 0.00 | 0.00 | 80 | 1009.0 |
| 20260506140510 | 16 | 184 | 3.2 | 8.0 | 0.00 | 0.00 | 0.00 | 82 | 1008.8 |
| 20260506140027 | 16 | 132 | 4.8 | 8.0 | 0.00 | 0.00 | 0.00 | 81 | 1008.9 |
| 20260506135510 | 16 | 15 | 3.2 | 11.3 | 0.00 | 0.00 | 0.00 | 82 | 1009.0 |
| 20260506135006 | 16 | 169 | 3.2 | 11.3 | 0.00 | 0.00 | 0.00 | 81 | 1008.9 |
| 20260506134523 | 16 | 70 | 3.2 | 11.3 | 0.00 | 0.00 | 0.00 | 82 | 1008.8 |
| 20260506134012 | 16 | 121 | 3.2 | 9.7 | 0.00 | 0.00 | 0.00 | 82 | 1008.8 |
| 20260506133506 | 16 | 118 | 0.0 | 11.3 | 0.00 | 0.00 | 0.00 | 84 | 1008.8 |
| 20260506133013 | 15 | 229 | 1.6 | 11.3 | 0.00 | 0.00 | 0.00 | 83 | 1008.8 |
| 20260506132509 | 15 | 334 | 1.6 | 11.3 | 0.00 | 0.00 | 0.00 | 84 | 1008.8 |
| 20260506132007 | 15 | 140 | 3.2 | 8.0 | 0.00 | 0.00 | 0.00 | 84 | 1008.7 |
| 20260506131520 | 15 | 118 | 3.2 | 11.3 | 0.00 | 0.00 | 0.00 | 85 | 1008.9 |
| 20260506131007 | 15 | 56 | 1.6 | 11.3 | 0.00 | 0.00 | 0.00 | 85 | 1009.0 |
| 20260506130508 | 15 | 161 | 1.6 | 9.7 | 0.00 | 0.00 | 0.00 | 85 | 1009.1 |
| 20260506130020 | 15 | 131 | 3.2 | 6.4 | 0.00 | 0.00 | 0.00 | 85 | 1009.1 |
| 20260506125508 | 15 | 238 | 3.2 | 8.0 | 0.00 | 0.00 | 0.00 | 86 | 1009.1 |
| 20260506125009 | 15 | 188 | 1.6 | 8.0 | 0.00 | 0.00 | 0.00 | 85 | 1009.1 |
| 20260506124522 | 14 | 134 | 1.6 | 4.8 | 0.00 | 0.00 | 0.00 | 86 | 1009.0 |
| 20260506124011 | 14 | 63 | 1.6 | 4.8 | 0.00 | 0.00 | 0.00 | 86 | 1009.3 |
| 20260506123510 | 14 | 157 | 0.0 | 4.8 | 0.00 | 0.00 | 0.00 | 87 | 1009.4 |
| 20260506123023 | 14 | 269 | 3.2 | 4.8 | 0.00 | 0.00 | 0.00 | 86 | 1009.3 |
| 20260506122508 | 14 | 83 | 1.6 | 6.4 | 0.00 | 0.00 | 0.00 | 87 | 1009.3 |
| 20260506122006 | 14 | 144 | 1.6 | 8.0 | 0.00 | 0.00 | 0.00 | 87 | 1009.4 |
| 20260506121510 | 14 | 129 | 3.2 | 8.0 | 0.00 | 0.00 | 0.00 | 87 | 1009.4 |
| 20260506121007 | 13 | 49 | 1.6 | 8.0 | 0.00 | 0.00 | 0.00 | 88 | 1009.3 |
| 20260506120508 | 13 | 307 | 0.0 | 3.2 | 0.00 | 0.00 | 0.00 | 88 | 1009.3 |
| 20260506120033 | 13 | 25 | 0.0 | 4.8 | 0.00 | 0.00 | 0.00 | 89 | 1009.2 |
| 20260506115509 | 13 | 177 | 1.6 | 6.4 | 0.00 | 0.00 | 0.00 | 88 | 1009.3 |
| 20260506115012 | 13 | 251 | 1.6 | 11.3 | 0.00 | 0.00 | 0.00 | 88 | 1009.4 |
| 20260506114520 | 13 | 182 | 1.6 | 11.3 | 0.00 | 0.00 | 0.00 | 88 | 1009.2 |
| 20260506114009 | 13 | 176 | 3.2 | 9.7 | 0.00 | 0.00 | 0.00 | 89 | 1009.1 |
| 20260506113503 | 13 | 161 | 1.6 | 6.4 | 0.00 | 0.00 | 0.00 | 89 | 1009.3 |
| 20260506113010 | 13 | 213 | 1.6 | 8.0 | 0.00 | 0.00 | 0.00 | 89 | 1009.4 |
| 20260506112505 | 13 | 169 | 1.6 | 11.3 | 0.00 | 0.00 | 0.00 | 89 | 1009.4 |
| 20260506112005 | 13 | 202 | 3.2 | 11.3 | 0.00 | 0.00 | 0.00 | 89 | 1009.3 |
| 20260506111510 | 13 | 89 | 1.6 | 8.0 | 0.00 | 0.00 | 0.00 | 90 | 1009.3 |
| 20260506111007 | 13 | 166 | 1.6 | 6.4 | 0.00 | 0.00 | 0.00 | 91 | 1009.2 |
| 20260506110509 | 12 | 164 | 1.6 | 6.4 | 0.00 | 0.00 | 0.00 | 92 | 1009.2 |
| 20260506110014 | 12 | 80 | 1.6 | 6.4 | 0.00 | 0.00 | 0.00 | 92 | 1009.4 |
| 20260506105503 | 12 | 101 | 0.0 | 3.2 | 0.00 | 0.00 | 0.00 | 93 | 1009.6 |
| 20260506105003 | 11 | 286 | 0.0 | 3.2 | 0.00 | 0.00 | 0.00 | 93 | 1009.5 |
| 20260506104507 | 11 | 186 | 0.0 | 3.2 | 0.00 | 0.00 | 0.00 | 93 | 1009.4 |
| 20260506104003 | 11 | 186 | 0.0 | 3.2 | 0.00 | 0.00 | 0.00 | 92 | 1009.5 |
| 20260506103502 | 11 | 288 | 0.0 | 3.2 | 0.00 | 0.00 | 0.00 | 92 | 1009.5 |
| 20260506103005 | 11 | 289 | 0.0 | 3.2 | 0.00 | 0.00 | 0.00 | 92 | 1009.6 |
| 20260506102504 | 11 | 205 | 0.0 | 3.2 | 0.00 | 0.00 | 0.00 | 92 | 1009.5 |
| 20260506102004 | 11 | 221 | 0.0 | 4.8 | 0.00 | 0.00 | 0.00 | 92 | 1009.5 |
| 20260506101508 | 11 | 171 | 0.0 | 4.8 | 0.00 | 0.00 | 0.00 | 92 | 1009.3 |
| 20260506101007 | 11 | 101 | 0.0 | 4.8 | 0.00 | 0.00 | 0.00 | 92 | 1009.3 |
| 20260506100506 | 11 | 140 | 0.0 | 4.8 | 0.00 | 0.00 | 0.00 | 92 | 1009.2 |
| 20260506100026 | 11 | 184 | 1.6 | 4.8 | 0.00 | 0.00 | 0.00 | 92 | 1009.2 |
| 20260506094521 | 11 | 250 | 0.0 | 3.2 | 0.00 | 0.00 | 0.00 | 92 | 1009.2 |
| 20260506094004 | 11 | 245 | 0.0 | 3.2 | 0.00 | 0.00 | 0.00 | 91 | 1009.2 |
| 20260506093512 | 11 | 203 | 0.0 | 3.2 | 0.00 | 0.00 | 0.00 | 91 | 1009.2 |
| 20260506093005 | 11 | 221 | 1.6 | 3.2 | 0.00 | 0.00 | 0.00 | 92 | 1009.2 |
| 20260506092507 | 11 | 219 | 0.0 | 3.2 | 0.00 | 0.00 | 0.00 | 91 | 1009.2 |
| 20260506092006 | 11 | 90 | 0.0 | 3.2 | 0.00 | 0.00 | 0.00 | 91 | 1009.2 |
| 20260506091506 | 11 | 118 | 0.0 | 3.2 | 0.00 | 0.00 | 0.00 | 91 | 1009.2 |
| 20260506091004 | 11 | 118 | 0.0 | 3.2 | 0.00 | 0.00 | 0.00 | 91 | 1009.3 |
| 20260506090505 | 11 | 65 | 0.0 | 3.2 | 0.00 | 0.00 | 0.00 | 91 | 1009.2 |
| 20260506090010 | 12 | 66 | 0.0 | 3.2 | 0.00 | 0.00 | 0.00 | 90 | 1009.3 |
| 20260506085507 | 12 | 65 | 0.0 | 3.2 | 0.00 | 0.00 | 0.00 | 90 | 1009.2 |
| 20260506085007 | 12 | 150 | 0.0 | 3.2 | 0.00 | 0.00 | 0.00 | 90 | 1009.3 |
| 20260506084515 | 12 | 133 | 0.0 | 3.2 | 0.00 | 0.00 | 0.00 | 90 | 1009.3 |
| 20260506084008 | 12 | 119 | 0.0 | 1.6 | 0.00 | 0.00 | 0.00 | 89 | 1009.3 |
| 20260506083510 | 12 | 117 | 0.0 | 1.6 | 0.00 | 0.00 | 0.00 | 89 | 1009.3 |
| 20260506083018 | 12 | 70 | 0.0 | 3.2 | 0.00 | 0.00 | 0.00 | 88 | 1009.4 |
| 20260506082505 | 12 | 70 | 0.0 | 3.2 | 0.00 | 0.00 | 0.00 | 88 | 1009.4 |
| 20260506082004 | 12 | 211 | 0.0 | 3.2 | 0.00 | 0.00 | 0.00 | 87 | 1009.4 |
| 20260506081504 | 12 | 269 | 0.0 | 3.2 | 0.00 | 0.00 | 0.00 | 87 | 1009.3 |
| 20260506081006 | 12 | 275 | 0.0 | 3.2 | 0.00 | 0.00 | 0.00 | 87 | 1009.3 |
| 20260506080503 | 12 | 106 | 1.6 | 4.8 | 0.00 | 0.00 | 0.00 | 87 | 1009.2 |
| 20260506073509 | 12 | 161 | 0.0 | 3.2 | 0.00 | 0.00 | 0.00 | 85 | 1009.2 |
| 20260506073018 | 13 | 94 | 0.0 | 3.2 | 0.00 | 0.00 | 0.00 | 85 | 1009.2 |
| 20260506072512 | 12 | 112 | 0.0 | 3.2 | 0.00 | 0.00 | 0.00 | 85 | 1009.2 |
| 20260506072012 | 12 | 96 | 0.0 | 3.2 | 0.00 | 0.00 | 0.00 | 85 | 1009.3 |
| 20260506071506 | 13 | 61 | 0.0 | 3.2 | 0.00 | 0.00 | 0.00 | 85 | 1009.2 |
| 20260506071003 | 13 | 135 | 0.0 | 3.2 | 0.00 | 0.00 | 0.00 | 84 | 1009.3 |
| 20260506070504 | 13 | 135 | 0.0 | 3.2 | 0.00 | 0.00 | 0.00 | 83 | 1009.3 |
| 20260506062507 | 13 | 106 | 0.0 | 8.0 | 0.00 | 0.00 | 0.00 | 81 | 1009.1 |
| 20260506062011 | 13 | 147 | 1.6 | 8.0 | 0.00 | 0.00 | 0.00 | 81 | 1009.1 |
| 20260506061520 | 13 | 174 | 0.0 | 3.2 | 0.00 | 0.00 | 0.00 | 81 | 1009.1 |
| 20260506061011 | 13 | 156 | 0.0 | 3.2 | 0.00 | 0.00 | 0.00 | 80 | 1009.1 |
| 20260506060509 | 13 | 162 | 0.0 | 3.2 | 0.00 | 0.00 | 0.00 | 79 | 1009.1 |
| 20260506051009 | 15 | 58 | 0.0 | 6.4 | 0.00 | 0.00 | 0.00 | 76 | 1009.4 |
| 20260506050515 | 15 | 185 | 1.6 | 6.4 | 0.00 | 0.00 | 0.00 | 75 | 1009.4 |
| 20260506045010 | 15 | 76 | 0.0 | 4.8 | 0.00 | 0.00 | 0.00 | 75 | 1009.4 |
| 20260506044505 | 15 | 13 | 0.0 | 4.8 | 0.00 | 0.00 | 0.00 | 75 | 1009.4 |
| 20260506044005 | 15 | 194 | 0.0 | 8.0 | 0.00 | 0.00 | 0.00 | 75 | 1009.4 |
| 20260506043011 | 15 | 310 | 1.6 | 4.8 | 0.00 | 0.00 | 0.00 | 75 | 1009.4 |
| 20260506042507 | 15 | 130 | 1.6 | 4.8 | 0.00 | 0.00 | 0.00 | 75 | 1009.3 |
| 20260506042007 | 15 | 26 | 1.6 | 4.8 | 0.00 | 0.00 | 0.00 | 75 | 1009.3 |
| 20260506041516 | 15 | 161 | 1.6 | 4.8 | 0.00 | 0.00 | 0.00 | 74 | 1009.3 |
| 20260506041009 | 15 | 5 | 0.0 | 6.4 | 0.00 | 0.00 | 0.00 | 74 | 1009.3 |
| 20260506040508 | 15 | 159 | 1.6 | 6.4 | 0.00 | 0.00 | 0.00 | 74 | 1009.3 |
| 20260506035506 | 15 | 164 | 0.0 | 3.2 | 0.00 | 0.00 | 0.00 | 75 | 1009.4 |
| 20260506035008 | 15 | 352 | 0.0 | 3.2 | 0.00 | 0.00 | 0.00 | 74 | 1009.5 |
| 20260506034526 | 15 | 178 | 0.0 | 8.0 | 0.00 | 0.00 | 0.00 | 74 | 1009.5 |
| 20260506034007 | 15 | 177 | 0.0 | 8.0 | 0.00 | 0.00 | 0.00 | 73 | 1009.5 |
| 20260506033505 | 15 | 196 | 1.6 | 4.8 | 0.00 | 0.00 | 0.00 | 73 | 1009.5 |
| 20260506032506 | 15 | 285 | 0.0 | 4.8 | 0.00 | 0.00 | 0.00 | 73 | 1009.7 |
| 20260506032007 | 15 | 158 | 1.6 | 4.8 | 0.00 | 0.00 | 0.00 | 73 | 1009.7 |
| 20260506031510 | 15 | 189 | 0.0 | 3.2 | 0.00 | 0.00 | 0.00 | 72 | 1009.6 |
| 20260506031008 | 15 | 221 | 1.6 | 6.4 | 0.00 | 0.00 | 0.00 | 72 | 1009.6 |
| 20260506030510 | 15 | 157 | 0.0 | 11.3 | 0.00 | 0.00 | 0.00 | 71 | 1009.6 |
| 20260506030015 | 16 | 23 | 1.6 | 11.3 | 0.00 | 0.00 | 0.00 | 71 | 1009.6 |
| 20260506025506 | 16 | 195 | 1.6 | 4.8 | 0.00 | 0.00 | 0.00 | 71 | 1009.6 |
| 20260506025006 | 16 | 178 | 0.0 | 12.9 | 0.00 | 0.00 | 0.00 | 70 | 1009.4 |
| 20260506024525 | 16 | 146 | 3.2 | 12.9 | 0.00 | 0.00 | 0.00 | 70 | 1009.5 |
| 20260506024011 | 16 | 119 | 1.6 | 11.3 | 0.00 | 0.00 | 0.00 | 70 | 1009.5 |
| 20260506023508 | 16 | 65 | 3.2 | 9.7 | 0.00 | 0.00 | 0.00 | 70 | 1009.3 |
| 20260506023028 | 16 | 113 | 1.6 | 4.8 | 0.00 | 0.00 | 0.00 | 70 | 1009.3 |
| 20260506022510 | 16 | 5 | 1.6 | 9.7 | 0.00 | 0.00 | 0.00 | 71 | 1009.2 |
| 20260506022003 | 16 | 131 | 1.6 | 8.0 | 0.00 | 0.00 | 0.00 | 70 | 1009.3 |
| 20260506021008 | 16 | 194 | 0.0 | 4.8 | 0.00 | 0.00 | 0.00 | 69 | 1009.1 |
| 20260506020507 | 16 | 38 | 1.6 | 9.7 | 0.00 | 0.00 | 0.00 | 68 | 1009.2 |
| 20260506020016 | 16 | 138 | 1.6 | 9.7 | 0.00 | 0.00 | 0.00 | 69 | 1009.2 |